createdAt,value
2018-07-27T00:01:20.679Z,99.90
2018-07-27T00:03:47.961Z,99.90
2018-07-27T00:06:15.330Z,99.90
2018-07-27T00:08:42.668Z,99.90
2018-07-27T00:11:09.979Z,99.90
2018-07-27T00:13:37.292Z,99.90
2018-07-27T00:16:04.572Z,99.90
2018-07-27T00:18:31.897Z,99.90
2018-07-27T00:20:59.151Z,99.90
2018-07-27T00:23:26.378Z,99.90
2018-07-27T00:25:53.680Z,99.90
2018-07-27T00:28:20.915Z,99.90
2018-07-27T00:30:48.255Z,99.90
2018-07-27T00:33:15.544Z,99.90
2018-07-27T00:35:42.823Z,99.90
2018-07-27T00:38:10.056Z,99.90
2018-07-27T00:40:37.315Z,99.90
2018-07-27T00:43:04.772Z,99.90
2018-07-27T00:45:32.180Z,99.90
2018-07-27T00:47:59.476Z,99.90
2018-07-27T00:50:26.776Z,99.90
2018-07-27T00:52:54.044Z,99.90
2018-07-27T00:55:21.300Z,99.90
2018-07-27T00:57:48.567Z,99.90
2018-07-27T01:00:16.152Z,99.90
2018-07-27T01:02:43.488Z,99.90
2018-07-27T01:07:38.147Z,99.90
2018-07-27T01:10:05.607Z,99.90
2018-07-27T01:12:32.939Z,99.90
2018-07-27T01:15:00.253Z,99.90
2018-07-27T01:17:27.569Z,99.90
2018-07-27T01:19:54.920Z,99.90
2018-07-27T01:22:22.264Z,99.90
2018-07-27T01:24:49.606Z,99.90
2018-07-27T01:27:16.928Z,99.90
2018-07-27T01:29:44.250Z,99.90
2018-07-27T01:32:11.585Z,99.90
2018-07-27T01:34:38.935Z,99.90
2018-07-27T01:37:06.252Z,99.90
2018-07-27T01:39:33.669Z,99.90
2018-07-27T01:42:01.069Z,99.90
2018-07-27T01:46:55.681Z,99.90
2018-07-27T01:49:23.013Z,99.90
2018-07-27T01:51:50.378Z,99.90
2018-07-27T01:54:17.724Z,99.90
2018-07-27T01:56:45.022Z,99.90
2018-07-27T01:59:12.398Z,99.90
2018-07-27T02:01:39.768Z,99.90
2018-07-27T02:04:07.135Z,99.90
2018-07-27T02:06:34.497Z,99.90
2018-07-27T02:09:01.866Z,99.90
2018-07-27T02:11:29.203Z,99.90
2018-07-27T02:13:56.569Z,99.90
2018-07-27T02:16:23.877Z,99.90
2018-07-27T02:18:51.235Z,99.90
2018-07-27T02:21:18.564Z,99.90
2018-07-27T02:23:45.902Z,99.90
2018-07-27T02:26:13.210Z,99.90
2018-07-27T02:28:40.586Z,99.90
2018-07-27T02:31:08.109Z,99.90
2018-07-27T02:33:35.435Z,99.90
2018-07-27T02:36:02.772Z,99.90
2018-07-27T02:38:30.098Z,99.90
2018-07-27T02:40:57.430Z,99.90
2018-07-27T02:43:24.798Z,99.90
2018-07-27T02:45:52.125Z,99.90
2018-07-27T02:48:19.449Z,99.90
2018-07-27T02:50:46.738Z,99.90
2018-07-27T02:53:14.151Z,99.90
2018-07-27T02:55:41.497Z,99.90
2018-07-27T03:00:36.226Z,99.90
2018-07-27T03:03:03.594Z,99.90
2018-07-27T03:05:30.913Z,99.90
2018-07-27T03:07:58.248Z,99.90
2018-07-27T03:10:25.557Z,99.90
2018-07-27T03:12:52.950Z,99.90
2018-07-27T03:15:20.399Z,99.90
2018-07-27T03:17:47.782Z,99.90
2018-07-27T03:20:15.150Z,99.90
2018-07-27T03:22:42.440Z,99.90
2018-07-27T03:27:37.056Z,99.90
2018-07-27T03:30:05.140Z,99.90
2018-07-27T03:32:32.600Z,99.90
2018-07-27T03:34:59.917Z,99.90
2018-07-27T03:37:27.294Z,99.90
2018-07-27T03:39:54.757Z,99.90
2018-07-27T03:42:22.082Z,99.90
2018-07-27T03:44:49.493Z,99.90
2018-07-27T03:47:16.823Z,99.90
2018-07-27T03:49:44.167Z,99.90
2018-07-27T03:52:11.497Z,99.90
2018-07-27T03:54:38.797Z,99.90
2018-07-27T03:57:06.277Z,99.90
2018-07-27T03:59:33.614Z,99.90
2018-07-27T04:02:00.969Z,99.90
2018-07-27T04:04:28.317Z,99.90
2018-07-27T04:06:55.673Z,99.90
2018-07-27T04:11:50.361Z,99.90
2018-07-27T04:14:17.762Z,99.90
2018-07-27T04:16:45.424Z,99.90
2018-07-27T04:19:12.779Z,99.90
2018-07-27T04:21:40.077Z,99.90
2018-07-27T04:24:07.421Z,99.90
2018-07-27T04:26:34.729Z,99.90
2018-07-27T04:31:29.485Z,99.90
2018-07-27T04:33:58.002Z,99.90
2018-07-27T04:36:25.361Z,99.90
2018-07-27T04:38:52.674Z,99.90
2018-07-27T04:41:20.063Z,99.90
2018-07-27T04:43:47.442Z,99.90
2018-07-27T04:46:14.813Z,99.90
2018-07-27T04:48:44.193Z,99.90
2018-07-27T04:51:11.545Z,99.90
2018-07-27T04:53:38.925Z,99.90
2018-07-27T04:56:06.310Z,99.90
2018-07-27T04:58:33.709Z,99.90
2018-07-27T05:01:01.102Z,99.90
2018-07-27T05:03:28.562Z,99.90
2018-07-27T05:05:56.014Z,99.90
2018-07-27T05:08:23.413Z,98.20
2018-07-27T05:10:50.774Z,97.60
2018-07-27T05:13:19.099Z,96.90
2018-07-27T05:15:47.293Z,97.70
2018-07-27T05:18:15.349Z,98.80
2018-07-27T05:20:43.567Z,99.40
2018-07-27T05:25:38.330Z,99.20
2018-07-27T05:28:05.718Z,99.70
2018-07-27T05:30:33.113Z,99.70
2018-07-27T05:33:00.470Z,99.90
2018-07-27T05:35:27.810Z,99.90
2018-07-27T05:37:55.298Z,99.90
2018-07-27T05:40:22.811Z,99.90
2018-07-27T05:42:50.226Z,99.90
2018-07-27T05:45:17.626Z,99.90
2018-07-27T05:47:44.991Z,99.90
2018-07-27T05:50:12.336Z,99.90
2018-07-27T05:52:39.768Z,99.90
2018-07-27T05:57:34.549Z,99.90
2018-07-27T06:00:01.931Z,99.90
2018-07-27T06:02:29.323Z,99.90
2018-07-27T06:04:56.853Z,99.90
2018-07-27T06:07:24.187Z,99.90
2018-07-27T06:09:51.535Z,99.90
2018-07-27T06:12:18.892Z,99.90
2018-07-27T06:14:46.246Z,99.90
2018-07-27T06:17:13.614Z,99.90
2018-07-27T06:19:40.968Z,99.90
2018-07-27T06:22:08.314Z,99.90
2018-07-27T06:24:47.681Z,99.90
2018-07-27T06:27:15.741Z,99.90
2018-07-27T06:29:43.169Z,99.90
2018-07-27T06:32:11.095Z,99.90
2018-07-27T06:34:38.540Z,99.90
2018-07-27T06:39:33.302Z,99.90
2018-07-27T06:42:00.780Z,99.90
2018-07-27T06:44:28.299Z,99.90
2018-07-27T06:49:22.986Z,99.90
2018-07-27T06:51:50.430Z,99.90
2018-07-27T06:54:17.819Z,99.90
2018-07-27T06:56:45.320Z,99.90
2018-07-27T06:59:13.086Z,99.90
2018-07-27T07:01:40.744Z,99.90
2018-07-27T07:04:08.101Z,99.90
2018-07-27T07:06:35.441Z,99.90
2018-07-27T07:11:30.319Z,99.90
2018-07-27T07:13:57.675Z,99.90
2018-07-27T07:16:25.096Z,99.90
2018-07-27T07:18:52.494Z,99.90
2018-07-27T07:23:47.187Z,99.90
2018-07-27T07:26:14.750Z,99.90
2018-07-27T07:28:41.970Z,99.90
2018-07-27T07:31:09.443Z,99.90
2018-07-27T07:33:36.785Z,99.90
2018-07-27T07:36:04.211Z,99.90
2018-07-27T07:38:31.588Z,99.90
2018-07-27T07:40:58.911Z,99.90
2018-07-27T07:43:26.283Z,99.90
2018-07-27T07:45:53.623Z,99.90
2018-07-27T07:48:20.977Z,99.90
2018-07-27T07:50:48.369Z,99.90
2018-07-27T07:53:15.722Z,99.90
2018-07-27T07:55:43.087Z,99.90
2018-07-27T07:58:10.434Z,99.90
2018-07-27T08:00:37.786Z,99.90
2018-07-27T08:03:05.454Z,99.90
2018-07-27T08:05:32.864Z,99.90
2018-07-27T08:08:00.147Z,99.90
2018-07-27T08:10:27.479Z,99.90
2018-07-27T08:12:54.841Z,99.90
2018-07-27T08:15:22.192Z,99.90
2018-07-27T08:17:49.559Z,99.90
2018-07-27T08:20:16.913Z,99.90
2018-07-27T08:22:44.303Z,99.90
2018-07-27T08:25:11.674Z,99.90
2018-07-27T08:27:39.017Z,99.90
2018-07-27T08:30:06.533Z,99.90
2018-07-27T08:32:33.886Z,99.90
2018-07-27T08:35:01.256Z,99.90
2018-07-27T08:37:28.609Z,99.90
2018-07-27T08:39:55.958Z,99.90
2018-07-27T08:42:23.327Z,99.60
2018-07-27T08:44:50.701Z,99.90
2018-07-27T08:47:18.054Z,99.60
2018-07-27T08:52:12.694Z,99.50
2018-07-27T08:54:40.046Z,99.50
2018-07-27T08:57:07.439Z,98.80
2018-07-27T08:59:34.950Z,98.60
2018-07-27T09:02:02.323Z,98.80
2018-07-27T09:04:29.680Z,98.40
2018-07-27T09:06:57.091Z,98.40
2018-07-27T09:09:24.484Z,98.30
2018-07-27T09:11:51.834Z,98.30
2018-07-27T09:14:19.189Z,97.60
2018-07-27T09:16:46.574Z,97.50
2018-07-27T09:19:13.956Z,97.50
2018-07-27T09:21:42.090Z,97.70
2018-07-27T09:24:09.607Z,98.20
2018-07-27T09:26:36.945Z,97.50
2018-07-27T09:31:31.698Z,97.90
2018-07-27T09:33:59.121Z,97.60
2018-07-27T09:36:26.460Z,97.20
2018-07-27T09:38:53.798Z,96.90
2018-07-27T09:41:21.163Z,97.30
2018-07-27T09:43:48.490Z,97.50
2018-07-27T09:46:18.062Z,97.30
2018-07-27T09:48:50.530Z,97.30
2018-07-27T09:51:18.445Z,97.20
2018-07-27T09:53:45.779Z,96.80
2018-07-27T09:56:13.156Z,97.10
2018-07-27T09:58:40.535Z,97.30
2018-07-27T10:01:12.510Z,97.30
2018-07-27T10:03:39.894Z,97.30
2018-07-27T10:06:07.229Z,96.60
2018-07-27T10:08:34.775Z,97.00
2018-07-27T10:13:29.870Z,96.90
2018-07-27T10:15:57.184Z,96.30
2018-07-27T10:20:51.890Z,95.90
2018-07-27T10:23:19.262Z,95.40
2018-07-27T10:25:46.584Z,95.50
2018-07-27T10:28:13.929Z,95.50
2018-07-27T10:33:08.606Z,95.30
2018-07-27T10:35:36.222Z,95.00
2018-07-27T10:38:03.798Z,94.80
2018-07-27T10:40:31.245Z,95.20
2018-07-27T10:42:58.683Z,95.10
2018-07-27T10:45:26.121Z,94.60
2018-07-27T10:50:21.094Z,94.50
2018-07-27T10:52:48.401Z,94.90
2018-07-27T10:55:16.238Z,94.50
2018-07-27T10:57:43.610Z,93.80
2018-07-27T11:00:13.399Z,94.10
2018-07-27T11:02:40.931Z,94.40
2018-07-27T11:05:08.594Z,94.20
2018-07-27T11:07:36.025Z,94.10
2018-07-27T11:12:31.502Z,94.30
2018-07-27T11:14:58.934Z,94.10
2018-07-27T11:19:54.061Z,93.60
2018-07-27T11:22:21.454Z,93.70
2018-07-27T11:27:16.512Z,92.80
2018-07-27T11:29:43.995Z,93.00
2018-07-27T11:32:11.377Z,93.80
2018-07-27T11:34:38.827Z,93.00
2018-07-27T11:37:06.282Z,93.40
2018-07-27T11:39:33.622Z,93.30
2018-07-27T11:42:01.191Z,93.10
2018-07-27T11:44:28.777Z,92.90
2018-07-27T11:49:23.776Z,93.30
2018-07-27T11:51:51.166Z,93.40
2018-07-27T11:54:18.530Z,93.30
2018-07-27T11:56:45.925Z,93.40
2018-07-27T11:59:13.341Z,93.30
2018-07-27T12:01:40.685Z,93.40
2018-07-27T12:04:07.982Z,94.60
2018-07-27T12:06:35.314Z,93.20
2018-07-27T12:11:30.296Z,92.30
2018-07-27T12:13:57.744Z,92.00
2018-07-27T12:16:25.072Z,92.60
2018-07-27T12:18:52.401Z,92.30
2018-07-27T12:21:19.887Z,94.00
2018-07-27T12:23:47.121Z,94.10
2018-07-27T12:26:14.569Z,92.50
2018-07-27T12:28:42.000Z,92.20
2018-07-27T12:31:09.439Z,92.20
2018-07-27T12:33:36.794Z,92.50
2018-07-27T12:36:04.387Z,92.40
2018-07-27T12:38:31.716Z,92.10
2018-07-27T12:40:59.125Z,92.10
2018-07-27T12:43:26.746Z,92.40
2018-07-27T12:45:54.085Z,92.50
2018-07-27T12:48:21.415Z,92.20
2018-07-27T12:50:48.733Z,92.50
2018-07-27T12:53:16.094Z,92.60
2018-07-27T12:55:43.401Z,92.30
2018-07-27T12:58:10.724Z,91.50
2018-07-27T13:00:38.022Z,91.20
2018-07-27T13:03:05.773Z,91.20
2018-07-27T13:05:33.180Z,91.40
2018-07-27T13:08:00.450Z,90.80
2018-07-27T13:10:27.809Z,90.50
2018-07-27T13:12:55.173Z,91.30
2018-07-27T13:15:22.522Z,91.40
2018-07-27T13:20:17.187Z,90.90
2018-07-27T13:22:44.550Z,90.60
2018-07-27T13:25:12.473Z,90.40
2018-07-27T13:27:39.864Z,90.90
2018-07-27T13:32:34.835Z,91.00
2018-07-27T13:35:02.543Z,90.00
2018-07-27T13:39:59.910Z,89.10
2018-07-27T13:42:29.262Z,90.10
2018-07-27T13:44:56.717Z,87.50
2018-07-27T13:47:24.389Z,87.70
2018-07-27T13:49:51.988Z,87.00
2018-07-27T13:52:19.487Z,87.50
2018-07-27T13:54:46.930Z,87.70
2018-07-27T13:57:14.654Z,88.30
2018-07-27T13:59:42.102Z,86.80
2018-07-27T14:02:09.937Z,87.90
2018-07-27T14:04:37.520Z,87.50
2018-07-27T14:07:05.834Z,87.20
2018-07-27T14:09:33.329Z,87.10
2018-07-27T14:12:00.712Z,87.20
2018-07-27T14:14:28.401Z,86.00
2018-07-27T14:16:55.910Z,86.10
2018-07-27T14:19:23.899Z,85.70
2018-07-27T14:21:51.335Z,85.50
2018-07-27T14:24:19.179Z,85.60
2018-07-27T14:26:46.560Z,85.00
2018-07-27T14:29:14.212Z,85.00
2018-07-27T14:31:41.656Z,84.70
2018-07-27T14:34:09.266Z,84.90
2018-07-27T14:36:38.930Z,83.30
2018-07-27T14:39:07.580Z,83.40
2018-07-27T14:41:34.974Z,82.50
2018-07-27T14:44:03.058Z,82.90
2018-07-27T14:46:30.587Z,82.90
2018-07-27T14:48:57.974Z,83.80
2018-07-27T14:51:25.433Z,86.20
2018-07-27T14:53:52.819Z,86.80
2018-07-27T14:56:20.245Z,86.50
2018-07-27T14:58:47.790Z,84.10
2018-07-27T15:01:15.122Z,81.40
2018-07-27T15:03:43.596Z,80.40
2018-07-27T15:06:11.063Z,80.10
2018-07-27T15:08:38.441Z,80.40
2018-07-27T15:11:06.195Z,79.20
2018-07-27T15:13:33.589Z,79.00
2018-07-27T15:16:01.018Z,79.20
2018-07-27T15:18:28.687Z,78.20
2018-07-27T15:20:56.159Z,79.30
2018-07-27T15:23:23.537Z,79.30
2018-07-27T15:25:50.965Z,79.30
2018-07-27T15:28:19.481Z,79.50
2018-07-27T15:30:46.917Z,79.40
2018-07-27T15:33:14.262Z,78.50
2018-07-27T15:35:41.716Z,80.00
2018-07-27T15:38:09.121Z,78.80
2018-07-27T15:40:36.542Z,78.70
2018-07-27T15:43:03.997Z,78.60
2018-07-27T15:45:31.493Z,78.80
2018-07-27T15:47:59.942Z,78.40
2018-07-27T15:50:27.350Z,79.20
2018-07-27T15:52:54.850Z,81.30
2018-07-27T15:57:50.691Z,82.00
2018-07-27T16:00:18.173Z,82.50
2018-07-27T16:02:45.533Z,82.50
2018-07-27T16:05:12.989Z,82.60
2018-07-27T16:07:40.308Z,82.40
2018-07-27T16:10:07.729Z,82.90
2018-07-27T16:12:35.052Z,82.80
2018-07-27T16:15:02.506Z,82.40
2018-07-27T16:17:29.860Z,82.60
2018-07-27T16:19:58.192Z,82.70
2018-07-27T16:22:26.315Z,81.40
2018-07-27T16:24:53.687Z,82.30
2018-07-27T16:27:21.026Z,83.60
2018-07-27T16:29:48.408Z,83.70
2018-07-27T16:32:15.795Z,82.60
2018-07-27T16:34:43.079Z,82.70
2018-07-27T16:37:10.558Z,82.60
2018-07-27T16:39:37.891Z,82.50
2018-07-27T16:42:05.273Z,81.70
2018-07-27T16:47:00.166Z,82.10
2018-07-27T16:49:27.521Z,81.50
2018-07-27T16:54:22.378Z,83.40
2018-07-27T16:56:49.687Z,82.70
2018-07-27T16:59:17.045Z,82.70
2018-07-27T17:06:39.109Z,84.30
2018-07-27T17:09:08.016Z,86.80
2018-07-27T17:11:35.642Z,88.40
2018-07-27T17:14:03.182Z,88.30
2018-07-27T17:16:30.512Z,88.40
2018-07-27T17:18:58.121Z,88.90
2018-07-27T17:21:25.597Z,90.20
2018-07-27T17:23:53.042Z,90.80
2018-07-27T17:26:20.407Z,90.90
2018-07-27T17:28:47.730Z,91.00
2018-07-27T17:31:15.189Z,91.20
2018-07-27T17:33:42.639Z,91.30
2018-07-27T17:36:10.562Z,91.60
2018-07-27T17:38:37.960Z,91.60
2018-07-27T17:41:05.849Z,91.80
2018-07-27T17:43:33.203Z,91.60
2018-07-27T17:46:00.569Z,91.70
2018-07-27T17:48:27.929Z,91.80
2018-07-27T17:50:55.273Z,92.00
2018-07-27T17:53:23.718Z,92.20
2018-07-27T17:55:51.101Z,92.40
2018-07-27T17:58:18.510Z,92.40
2018-07-27T18:00:46.923Z,92.90
2018-07-27T18:03:14.267Z,92.50
2018-07-27T18:05:41.648Z,92.50
2018-07-27T18:08:08.974Z,92.70
2018-07-27T18:10:36.341Z,92.60
2018-07-27T18:15:31.337Z,92.90
2018-07-27T18:17:58.670Z,92.70
2018-07-27T18:20:27.130Z,92.60
2018-07-27T18:22:54.577Z,92.50
2018-07-27T18:25:22.022Z,92.40
2018-07-27T18:27:49.432Z,92.20
2018-07-27T18:30:16.823Z,92.10
2018-07-27T18:32:44.317Z,92.00
2018-07-27T18:35:11.761Z,92.00
2018-07-27T18:40:08.235Z,91.90
2018-07-27T18:42:35.558Z,91.80
2018-07-27T18:45:03.237Z,91.70
2018-07-27T18:47:30.886Z,91.70
2018-07-27T18:49:58.370Z,91.80
2018-07-27T18:52:25.793Z,91.90
2018-07-27T18:57:20.451Z,92.20
2018-07-27T18:59:47.866Z,92.50
2018-07-27T19:02:16.225Z,92.50
2018-07-27T19:04:43.585Z,92.60
2018-07-27T19:07:10.993Z,92.90
2018-07-27T19:09:38.366Z,93.40
2018-07-27T19:12:05.789Z,93.00
2018-07-27T19:14:33.249Z,92.80
2018-07-27T19:17:00.997Z,92.90
2018-07-27T19:21:55.845Z,93.50
2018-07-27T19:26:50.521Z,93.30
2018-07-27T19:29:17.900Z,93.40
2018-07-27T19:31:45.246Z,93.80
2018-07-27T19:34:12.590Z,94.20
2018-07-27T19:36:39.985Z,94.70
2018-07-27T19:39:09.129Z,95.10
2018-07-27T19:41:36.482Z,95.40
2018-07-27T19:44:03.925Z,95.60
2018-07-27T19:46:31.273Z,95.20
2018-07-27T19:48:58.718Z,94.90
2018-07-27T19:51:27.089Z,94.70
2018-07-27T19:53:54.532Z,94.60
2018-07-27T19:56:22.966Z,94.80
2018-07-27T19:58:54.084Z,95.10
2018-07-27T20:01:21.499Z,95.40
2018-07-27T20:03:48.837Z,95.30
2018-07-27T20:06:16.184Z,95.30
2018-07-27T20:08:44.344Z,95.80
2018-07-27T20:13:39.064Z,95.60
2018-07-27T20:16:06.391Z,95.70
2018-07-27T20:18:33.733Z,95.80
2018-07-27T20:23:28.513Z,96.00
2018-07-27T20:25:55.901Z,96.00
2018-07-27T20:28:23.666Z,96.10
2018-07-27T20:30:51.049Z,96.10
2018-07-27T20:33:18.383Z,96.10
2018-07-27T20:35:45.681Z,96.30
2018-07-27T20:38:13.064Z,96.40
2018-07-27T20:43:07.944Z,96.60
2018-07-27T20:45:37.793Z,96.60
2018-07-27T20:48:05.487Z,96.70
2018-07-27T20:50:32.966Z,96.90
2018-07-27T20:53:01.332Z,96.90
2018-07-27T20:55:28.660Z,96.90
2018-07-27T20:57:55.988Z,96.90
2018-07-27T21:00:23.494Z,97.00
2018-07-27T21:02:50.877Z,97.50
2018-07-27T21:05:18.255Z,97.10
2018-07-27T21:07:45.669Z,97.10
2018-07-27T21:10:13.341Z,97.20
2018-07-27T21:15:09.274Z,97.40
2018-07-27T21:17:36.910Z,97.30
2018-07-27T21:20:04.833Z,97.50
2018-07-27T21:22:33.261Z,97.60
2018-07-27T21:25:00.636Z,97.50
2018-07-27T21:27:28.044Z,97.70
2018-07-27T21:29:55.411Z,97.80
2018-07-27T21:32:22.786Z,97.90
2018-07-27T21:34:50.133Z,98.00
2018-07-27T21:37:17.540Z,98.10
2018-07-27T21:39:44.891Z,98.20
2018-07-27T21:42:12.300Z,98.60
2018-07-27T21:44:39.696Z,98.40
2018-07-27T21:47:07.093Z,98.50
2018-07-27T21:49:34.424Z,98.60
2018-07-27T21:52:01.872Z,98.70
2018-07-27T21:54:29.304Z,98.70
2018-07-27T21:56:56.669Z,98.80
2018-07-27T21:59:24.018Z,98.80
2018-07-27T22:01:51.469Z,98.90
2018-07-27T22:04:18.919Z,98.90
2018-07-27T22:06:46.275Z,99.00
2018-07-27T22:09:13.672Z,99.10
2018-07-27T22:11:41.077Z,99.20
2018-07-27T22:14:08.466Z,99.30
2018-07-27T22:16:36.861Z,99.40
2018-07-27T22:19:04.230Z,99.50
2018-07-27T22:21:31.774Z,99.50
2018-07-27T22:23:59.130Z,99.40
2018-07-27T22:26:26.468Z,99.40
2018-07-27T22:28:53.774Z,99.30
2018-07-27T22:31:21.133Z,99.30
2018-07-27T22:33:48.463Z,99.20
2018-07-27T22:36:15.808Z,99.60
2018-07-27T22:38:43.191Z,99.20
2018-07-27T22:41:10.631Z,99.30
2018-07-27T22:43:38.006Z,99.30
2018-07-27T22:46:05.510Z,99.40
2018-07-27T22:51:00.210Z,99.30
2018-07-27T22:53:27.569Z,99.70
2018-07-27T22:55:54.860Z,99.90
2018-07-27T22:58:22.232Z,99.70
2018-07-27T23:00:49.546Z,99.60
2018-07-27T23:03:16.894Z,99.70
2018-07-27T23:05:44.237Z,99.90
2018-07-27T23:08:11.604Z,99.80
2018-07-27T23:10:38.888Z,99.90
2018-07-27T23:13:06.393Z,99.90
2018-07-27T23:15:33.727Z,99.90
2018-07-27T23:18:01.042Z,99.90
2018-07-27T23:20:28.435Z,99.90
2018-07-27T23:22:55.778Z,99.90
2018-07-27T23:25:23.179Z,99.90
2018-07-27T23:27:50.491Z,99.90
2018-07-27T23:30:17.843Z,99.90
2018-07-27T23:32:46.289Z,99.90
2018-07-27T23:35:13.659Z,99.90
2018-07-27T23:37:40.984Z,99.90
2018-07-27T23:40:08.778Z,99.90
2018-07-27T23:42:36.097Z,99.90
2018-07-27T23:47:31.293Z,99.90
2018-07-27T23:49:58.636Z,99.90
2018-07-27T23:52:25.982Z,99.90
2018-07-27T23:54:53.440Z,99.90
2018-07-27T23:57:20.770Z,99.90
2018-07-27T23:59:48.106Z,99.90
